Terminal Aerodrome Forecast
Issued by NWS Louisville, KY

Home | Current Version | Previous Version | Text Only | Print | Product List | Glossary On
Versions: 1 2 3 4 5 6 7 8 9 10 11 12 13 14 15 16 17 18 19 20 21
860
FTUS43 KLMK 182015 AAA
TAFSDF
TAF AMD
KSDF 182015Z 1820/1924 20008KT 6SM -SHRA BKN050
     FM182200 22008KT P6SM VCSH BKN025
     FM190000 VRB04KT 4SM BR OVC015
      TEMPO 1900/1903 2SM BR BKN010
     FM190900 24004KT 3SM BR OVC010
     FM191600 23003KT P6SM SCT015 SCT250=

USA.gov is the U.S. government's official web portal to all federal, state and local government web resources and services.